Time;durP1;ratioP1;P1;durP2;ratioP2;P2;SDS_P1;SDS_P2;PMS_P1;PMS_P2;Temp;Humidity;BMP_temperature;BMP_pressure;BME280_temperature;BME280_humidity;BME280_pressure;Samples;Min_cycle;Max_cycle;Signal;HPM_P1;HPM_P2
2021/10/02 00:45:26;;;;;;;1.55;1.25;;;17.10;69.30;;;;;;5055139;28;20040;-80
2021/10/02 00:47:55;;;;;;;1.83;1.48;;;17.20;69.30;;;;;;5059733;28;20035;-81
2021/10/02 00:50:21;;;;;;;2.00;1.30;;;17.20;69.40;;;;;;5051609;28;20077;-81
2021/10/02 00:52:47;;;;;;;1.92;1.50;;;17.20;69.40;;;;;;5038980;28;20036;-80
2021/10/02 00:55:14;;;;;;;2.25;1.45;;;17.20;69.40;;;;;;5053569;28;20071;-80
2021/10/02 00:57:40;;;;;;;2.10;1.40;;;17.20;69.50;;;;;;5059100;28;20090;-80
2021/10/02 01:00:07;;;;;;;2.83;1.65;;;17.20;69.40;;;;;;5027976;28;21333;-80
2021/10/02 01:02:36;;;;;;;1.38;1.20;;;17.20;69.40;;;;;;5045132;28;20032;-80
2021/10/02 01:05:09;;;;;;;1.48;1.27;;;17.20;69.40;;;;;;5034790;28;20045;-80
2021/10/02 01:07:59;;;;;;;1.95;1.45;;;17.20;69.40;;;;;;5056267;28;20446;-80
2021/10/02 01:10:34;;;;;;;1.83;1.48;;;17.20;69.50;;;;;;5086604;28;20073;-80
2021/10/02 01:13:18;;;;;;;;;;;17.20;69.40;;;;;;5055541;28;20061;-80
2021/10/02 01:15:50;;;;;;;1.48;1.38;;;17.20;69.30;;;;;;5058124;28;20858;-80
2021/10/02 01:18:18;;;;;;;1.63;1.35;;;17.20;69.20;;;;;;5058627;28;20074;-79
2021/10/02 01:21:02;;;;;;;1.67;1.58;;;17.10;69.30;;;;;;5065743;28;20025;-79
2021/10/02 01:23:46;;;;;;;2.80;1.80;;;17.20;69.50;;;;;;5054052;28;20037;-81
2021/10/02 01:26:26;;;;;;;2.40;1.70;;;17.10;69.40;;;;;;5063981;28;20033;-80
2021/10/02 01:28:56;;;;;;;2.42;1.80;;;17.20;69.50;;;;;;5057115;28;20073;-80
2021/10/02 01:31:48;;;;;;;1.92;1.60;;;17.20;69.50;;;;;;5041682;28;20025;-80
2021/10/02 01:34:46;;;;;;;1.83;1.70;;;17.20;69.50;;;;;;5038658;28;20462;-80
2021/10/02 01:47:59;;;;;;;2.25;1.60;;;17.10;69.50;;;;;;5037873;28;20029;-80
2021/10/02 01:50:29;;;;;;;1.63;1.40;;;17.10;69.50;;;;;;5052048;28;20017;-80
2021/10/02 01:52:58;;;;;;;2.15;1.70;;;17.20;69.50;;;;;;5056376;28;20363;-81
2021/10/02 01:55:25;;;;;;;1.77;1.50;;;17.10;69.50;;;;;;5062214;28;20477;-80
2021/10/02 01:57:59;;;;;;;1.90;1.60;;;17.10;69.50;;;;;;5038023;28;20029;-80
2021/10/02 02:00:27;;;;;;;2.15;1.60;;;17.20;69.60;;;;;;5050308;28;20032;-82
2021/10/02 02:02:57;;;;;;;1.67;1.58;;;17.10;69.40;;;;;;5048558;28;20482;-81
2021/10/02 02:05:27;;;;;;;2.25;1.60;;;17.20;69.50;;;;;;5057614;28;20041;-81
2021/10/02 02:07:58;;;;;;;2.47;1.70;;;17.20;69.50;;;;;;5065806;28;20074;-81
2021/10/02 02:10:26;;;;;;;2.00;1.80;;;17.20;69.50;;;;;;5047186;28;20029;-80
2021/10/02 02:12:54;;;;;;;2.00;1.80;;;17.20;69.50;;;;;;5028825;28;20092;-81
2021/10/02 02:15:21;;;;;;;2.28;1.80;;;17.20;69.50;;;;;;5069642;28;20051;-82
2021/10/02 02:17:52;;;;;;;2.15;1.83;;;17.20;69.50;;;;;;5051409;28;20478;-81
2021/10/02 02:20:38;;;;;;;2.47;1.83;;;17.20;69.60;;;;;;5056903;28;20031;-80
2021/10/02 02:23:05;;;;;;;2.83;1.90;;;17.20;69.70;;;;;;5056965;28;20071;-80
2021/10/02 02:25:31;;;;;;;1.83;1.60;;;17.10;69.40;;;;;;5061370;28;20035;-82
2021/10/02 02:27:58;;;;;;;2.35;1.80;;;17.20;69.50;;;;;;5058997;28;20027;-80
2021/10/02 02:30:24;;;;;;;1.92;1.45;;;17.10;69.50;;;;;;5058965;28;20114;-80
2021/10/02 02:32:51;;;;;;;3.25;1.90;;;17.10;69.40;;;;;;5052536;28;20130;-80
2021/10/02 02:35:22;;;;;;;2.00;1.73;;;17.20;69.50;;;;;;5044407;28;20043;-80
2021/10/02 02:37:49;;;;;;;2.90;1.90;;;17.20;69.60;;;;;;5060127;28;20413;-80
2021/10/02 02:40:14;;;;;;;2.00;1.70;;;17.20;69.50;;;;;;5069360;28;20528;-80
2021/10/02 02:42:41;;;;;;;2.88;2.15;;;17.20;69.50;;;;;;5041070;28;20104;-81
2021/10/02 02:45:08;;;;;;;2.60;1.90;;;17.20;70.20;;;;;;5053167;28;20025;-80
2021/10/02 02:47:49;;;;;;;2.45;1.98;;;17.10;69.50;;;;;;5056063;28;20021;-80
2021/10/02 02:50:20;;;;;;;2.53;1.98;;;17.20;69.50;;;;;;5081626;28;20448;-80
2021/10/02 02:53:42;;;;;;;1.80;1.65;;;17.20;69.50;;;;;;5053945;28;20039;-80
2021/10/02 02:56:13;;;;;;;2.15;1.90;;;17.20;69.60;;;;;;5049452;28;20405;-80
2021/10/02 02:58:40;;;;;;;2.00;1.80;;;17.10;69.40;;;;;;5047502;28;20033;-80
2021/10/02 03:01:09;;;;;;;2.63;1.98;;;17.20;69.50;;;;;;5059974;28;20088;-80
2021/10/02 03:03:38;;;;;;;3.53;2.10;;;17.10;69.50;;;;;;5059608;28;20036;-81
2021/10/02 03:06:08;;;;;;;2.85;2.10;;;17.10;69.50;;;;;;5051212;28;20036;-80
2021/10/02 03:08:38;;;;;;;1.90;1.75;;;17.10;69.60;;;;;;5049170;28;20028;-81
2021/10/02 03:11:05;;;;;;;2.70;2.00;;;17.10;69.50;;;;;;5047623;28;20017;-80
2021/10/02 03:13:35;;;;;;;2.60;2.20;;;17.10;69.50;;;;;;5047357;28;20037;-80
2021/10/02 03:16:09;;;;;;;2.65;1.80;;;17.10;69.60;;;;;;5076362;28;20107;-78
2021/10/02 03:18:40;;;;;;;2.35;1.95;;;17.10;69.60;;;;;;5061320;28;20051;-82
2021/10/02 03:21:07;;;;;;;2.65;1.85;;;17.10;69.60;;;;;;5055685;28;20547;-80
2021/10/02 03:23:33;;;;;;;2.10;1.90;;;17.20;69.60;;;;;;5060571;28;20116;-80
2021/10/02 03:26:02;;;;;;;2.83;2.10;;;17.20;69.60;;;;;;5041022;28;20439;-80
2021/10/02 03:28:29;;;;;;;2.53;2.10;;;17.10;69.60;;;;;;5053760;28;20456;-80
2021/10/02 03:30:57;;;;;;;3.00;2.15;;;17.20;69.60;;;;;;5064156;28;20213;-80
2021/10/02 03:33:24;;;;;;;2.55;2.03;;;17.10;69.60;;;;;;5060962;28;20032;-80
2021/10/02 03:35:50;;;;;;;2.83;2.30;;;17.10;69.60;;;;;;5062713;28;20119;-81
2021/10/02 03:38:17;;;;;;;3.15;2.30;;;17.10;69.60;;;;;;5056262;28;20107;-80
2021/10/02 03:40:43;;;;;;;2.85;2.35;;;17.10;69.60;;;;;;5049545;28;20028;-81
2021/10/02 03:43:08;;;;;;;2.55;2.30;;;17.10;69.60;;;;;;5048209;28;20029;-80
2021/10/02 03:45:38;;;;;;;3.05;2.38;;;17.10;69.60;;;;;;5043841;28;20025;-80
2021/10/02 03:48:04;;;;;;;3.17;2.17;;;17.10;69.60;;;;;;5020533;28;20086;-80
2021/10/02 03:50:31;;;;;;;2.65;2.25;;;17.10;69.60;;;;;;5040044;28;20504;-80
2021/10/02 03:52:57;;;;;;;3.33;2.50;;;17.10;69.60;;;;;;5056081;28;20033;-81
2021/10/02 03:55:23;;;;;;;2.72;2.20;;;17.10;69.60;;;;;;5053491;28;20381;-80
2021/10/02 03:57:49;;;;;;;3.20;2.30;;;17.10;69.60;;;;;;5057186;28;20021;-80
2021/10/02 04:00:16;;;;;;;2.55;2.00;;;17.10;69.60;;;;;;5051844;28;20036;-80
2021/10/02 04:02:42;;;;;;;2.92;2.28;;;17.10;69.60;;;;;;5063807;28;20104;-80
2021/10/02 04:05:09;;;;;;;3.25;2.60;;;17.10;69.60;;;;;;5040742;28;20040;-80
2021/10/02 04:07:35;;;;;;;3.20;2.28;;;17.10;69.60;;;;;;5060231;28;20024;-81
2021/10/02 04:10:03;;;;;;;3.00;2.45;;;17.10;69.60;;;;;;5058716;28;20079;-81
2021/10/02 04:12:29;;;;;;;3.75;2.58;;;17.10;69.60;;;;;;5059401;28;20083;-81
2021/10/02 04:14:56;;;;;;;4.18;2.30;;;17.10;69.60;;;;;;5034678;28;20045;-80
2021/10/02 04:17:22;;;;;;;3.30;2.42;;;17.10;69.60;;;;;;5063772;28;20440;-80
2021/10/02 04:19:47;;;;;;;4.20;2.53;;;17.10;69.60;;;;;;5040329;28;20036;-80
2021/10/02 04:22:13;;;;;;;3.30;2.42;;;17.10;69.60;;;;;;5037534;28;20034;-81
2021/10/02 04:24:42;;;;;;;2.88;2.30;;;17.10;69.60;;;;;;5042229;28;20473;-80
2021/10/02 04:27:10;;;;;;;2.33;1.98;;;17.10;69.70;;;;;;5051839;28;20028;-80
2021/10/02 04:29:36;;;;;;;3.55;2.40;;;17.10;69.70;;;;;;5056260;28;20028;-80
2021/10/02 04:32:02;;;;;;;3.75;2.70;;;17.10;69.70;;;;;;5059230;28;20037;-81
2021/10/02 04:34:27;;;;;;;3.65;2.60;;;17.10;69.70;;;;;;5051473;28;20370;-80
2021/10/02 04:36:53;;;;;;;3.35;2.47;;;17.10;69.70;;;;;;5058332;28;20119;-80
2021/10/02 04:39:19;;;;;;;4.00;2.80;;;17.10;69.70;;;;;;5033279;28;20041;-80
2021/10/02 04:41:45;;;;;;;4.40;3.17;;;17.10;69.70;;;;;;5065798;28;20029;-81
2021/10/02 04:44:11;;;;;;;3.22;2.65;;;17.10;69.70;;;;;;5062100;28;20045;-80
2021/10/02 04:46:36;;;;;;;3.40;2.72;;;17.10;69.70;;;;;;5040167;28;20385;-81
2021/10/02 04:49:03;;;;;;;3.03;2.58;;;17.00;69.60;;;;;;5055728;28;20089;-80
2021/10/02 04:51:28;;;;;;;2.83;2.42;;;17.10;69.70;;;;;;5052689;28;20460;-80
2021/10/02 04:53:54;;;;;;;3.42;2.65;;;17.10;69.70;;;;;;5052152;28;20155;-81
2021/10/02 04:56:21;;;;;;;3.50;2.88;;;17.10;69.70;;;;;;5022460;28;20033;-80
2021/10/02 04:58:47;;;;;;;4.13;2.60;;;17.10;69.70;;;;;;5022275;28;20029;-80
2021/10/02 05:01:13;;;;;;;3.95;3.05;;;17.00;69.70;;;;;;5072663;28;20025;-80
2021/10/02 05:03:40;;;;;;;3.85;3.08;;;17.10;69.80;;;;;;5032497;28;20413;-80
2021/10/02 05:06:07;;;;;;;4.18;3.00;;;17.10;69.80;;;;;;5054548;28;20029;-81
2021/10/02 05:08:36;;;;;;;4.20;3.20;;;17.00;69.80;;;;;;5055426;28;20388;-80
2021/10/02 05:11:05;;;;;;;3.42;2.78;;;17.10;69.80;;;;;;5055903;28;20122;-80
2021/10/02 05:13:32;;;;;;;4.35;2.78;;;17.10;69.80;;;;;;5037054;28;20027;-80
2021/10/02 05:15:59;;;;;;;4.03;3.17;;;17.00;69.70;;;;;;5039304;28;20051;-79
2021/10/02 05:18:25;;;;;;;4.25;2.90;;;17.00;69.70;;;;;;5060689;28;20107;-81
2021/10/02 05:20:51;;;;;;;3.40;2.67;;;17.00;69.80;;;;;;5033781;28;20087;-81
2021/10/02 05:23:17;;;;;;;3.90;2.97;;;17.00;69.80;;;;;;5062957;28;20029;-80
2021/10/02 05:25:43;;;;;;;3.80;2.90;;;17.00;69.80;;;;;;5061646;28;20037;-79
2021/10/02 05:28:09;;;;;;;4.40;3.25;;;17.00;69.80;;;;;;5052358;28;20063;-80
2021/10/02 05:30:35;;;;;;;4.18;3.20;;;17.00;69.80;;;;;;5055254;28;20056;-80
2021/10/02 05:33:03;;;;;;;4.00;3.22;;;17.00;69.80;;;;;;5034509;28;20430;-79
2021/10/02 05:35:30;;;;;;;3.30;2.65;;;17.00;69.80;;;;;;5046479;28;20068;-80
2021/10/02 05:37:56;;;;;;;4.25;3.13;;;17.00;69.90;;;;;;5071096;28;20139;-80
2021/10/02 05:40:22;;;;;;;3.58;2.83;;;17.00;69.80;;;;;;5035843;28;20057;-80
2021/10/02 05:42:48;;;;;;;4.50;3.25;;;17.00;69.90;;;;;;5064134;28;20044;-80
2021/10/02 05:45:13;;;;;;;4.32;3.33;;;16.90;69.80;;;;;;5048032;28;20079;-81
2021/10/02 05:47:39;;;;;;;3.53;2.63;;;17.00;69.90;;;;;;5056896;28;20048;-80
2021/10/02 05:50:05;;;;;;;4.15;3.03;;;16.90;69.80;;;;;;5021832;28;20029;-80
2021/10/02 05:52:31;;;;;;;4.05;2.58;;;17.00;69.90;;;;;;5045007;28;20060;-80
2021/10/02 05:54:57;;;;;;;3.72;2.65;;;16.90;69.80;;;;;;5054594;28;20436;-81
2021/10/02 05:57:23;;;;;;;3.67;2.90;;;16.90;69.80;;;;;;5035209;28;20037;-80
2021/10/02 05:59:49;;;;;;;3.38;2.70;;;16.90;69.90;;;;;;5061104;28;20028;-80
2021/10/02 06:02:15;;;;;;;4.68;3.10;;;16.90;69.90;;;;;;5045154;28;20063;-80
2021/10/02 06:04:41;;;;;;;4.15;3.00;;;16.90;69.90;;;;;;5056666;28;20025;-80
2021/10/02 06:07:06;;;;;;;4.78;2.88;;;16.90;70.50;;;;;;5058564;28;20056;-80
2021/10/02 06:09:32;;;;;;;3.95;3.10;;;16.90;69.90;;;;;;5059554;28;20029;-80
2021/10/02 06:11:58;;;;;;;4.13;3.05;;;16.90;69.90;;;;;;5052988;28;20036;-80
2021/10/02 06:14:24;;;;;;;4.30;3.25;;;16.90;69.90;;;;;;5058398;28;20045;-80
2021/10/02 06:16:50;;;;;;;3.90;2.85;;;16.90;69.90;;;;;;5046477;28;20048;-81
2021/10/02 06:19:17;;;;;;;3.70;3.00;;;16.90;69.90;;;;;;5037821;28;20117;-80
2021/10/02 06:21:44;;;;;;;3.80;3.10;;;16.90;69.90;;;;;;5037728;28;20032;-80
2021/10/02 06:24:10;;;;;;;3.22;2.65;;;16.80;69.90;;;;;;5059222;28;20025;-80
2021/10/02 06:26:37;;;;;;;3.80;2.78;;;16.80;69.90;;;;;;5040601;28;20033;-80
2021/10/02 06:29:05;;;;;;;4.25;2.80;;;16.80;69.80;;;;;;5038584;28;20032;-80
2021/10/02 06:31:31;;;;;;;3.40;2.88;;;16.80;69.90;;;;;;5043327;28;20057;-80
2021/10/02 06:33:56;;;;;;;3.65;2.72;;;16.80;69.90;;;;;;5058133;28;20477;-80
2021/10/02 06:36:22;;;;;;;3.08;2.55;;;16.80;69.90;;;;;;5059199;28;20024;-80
2021/10/02 06:38:48;;;;;;;3.72;2.80;;;16.80;69.90;;;;;;5026449;28;20131;-80
2021/10/02 06:41:14;;;;;;;5.13;3.20;;;16.80;69.90;;;;;;5061550;28;20063;-80
2021/10/02 06:43:40;;;;;;;3.97;2.80;;;16.80;69.90;;;;;;5055530;28;20123;-82
2021/10/02 06:46:05;;;;;;;3.42;2.72;;;16.80;70.00;;;;;;5053561;28;20489;-81
2021/10/02 06:48:32;;;;;;;3.88;2.92;;;16.80;70.00;;;;;;5059569;28;20362;-80
2021/10/02 06:50:58;;;;;;;3.63;2.72;;;16.80;70.00;;;;;;5050063;28;20111;-81
2021/10/02 06:53:24;;;;;;;3.60;2.85;;;16.80;70.00;;;;;;5042227;28;20533;-80
2021/10/02 06:55:50;;;;;;;3.70;3.10;;;16.80;70.00;;;;;;5064488;28;20092;-80
2021/10/02 06:58:15;;;;;;;3.47;2.63;;;16.80;70.00;;;;;;5042598;28;20531;-80
2021/10/02 07:06:19;;;;;;;3.88;2.67;;;16.70;69.90;;;;;;5060914;23;20059;-80
2021/10/02 07:08:45;;;;;;;4.20;2.85;;;16.70;70.00;;;;;;4952245;28;20553;-80
2021/10/02 07:11:10;;;;;;;4.30;3.03;;;16.70;70.00;;;;;;4921030;29;20043;-82
2021/10/02 07:13:36;;;;;;;3.67;2.90;;;16.70;70.00;;;;;;4931273;29;20082;-80
2021/10/02 07:16:02;;;;;;;3.63;2.70;;;16.70;70.00;;;;;;4907734;29;20394;-80
2021/10/02 07:18:28;;;;;;;3.67;2.83;;;16.70;70.00;;;;;;4942124;29;20110;-81
2021/10/02 07:20:54;;;;;;;3.83;3.20;;;16.70;70.00;;;;;;4923139;29;20035;-80
2021/10/02 07:23:20;;;;;;;3.65;2.70;;;16.70;70.00;;;;;;4938670;29;20035;-81
2021/10/02 07:25:47;;;;;;;3.72;2.92;;;16.70;70.10;;;;;;4932507;29;20803;-81
2021/10/02 07:28:13;;;;;;;3.28;2.53;;;16.70;70.10;;;;;;4922994;29;20058;-81
2021/10/02 07:30:39;;;;;;;4.35;2.92;;;16.70;70.10;;;;;;4923036;29;20035;-80
2021/10/02 07:33:05;;;;;;;3.25;2.55;;;16.70;70.00;;;;;;4927749;29;20514;-81
2021/10/02 07:35:30;;;;;;;3.53;2.92;;;16.70;70.10;;;;;;4938705;29;20039;-81
2021/10/02 07:37:56;;;;;;;3.20;2.70;;;16.80;70.10;;;;;;4953391;29;20039;-79
2021/10/02 07:40:22;;;;;;;3.83;2.65;;;16.70;70.10;;;;;;4894805;29;20078;-79
2021/10/02 07:42:53;;;;;;;3.50;2.60;;;16.70;70.10;;;;;;4925898;29;20063;-80
2021/10/02 07:45:23;;;;;;;3.70;2.80;;;16.80;70.20;;;;;;4956121;29;20524;-80
2021/10/02 07:47:52;;;;;;;3.97;2.58;;;16.70;70.10;;;;;;4956239;29;20499;-80
2021/10/02 07:50:18;;;;;;;3.55;2.80;;;16.70;70.10;;;;;;4955966;29;20023;-80
2021/10/02 07:52:45;;;;;;;3.83;2.75;;;16.80;70.20;;;;;;4938791;29;20039;-80
2021/10/02 07:55:13;;;;;;;2.97;2.45;;;16.80;70.20;;;;;;4939832;29;20046;-80
2021/10/02 07:57:41;;;;;;;4.45;3.10;;;16.80;70.20;;;;;;4932364;29;20082;-80
2021/10/02 08:00:16;;;;;;;4.07;2.80;;;16.80;70.20;;;;;;4955668;28;20038;-80
2021/10/02 08:02:44;;;;;;;4.38;3.10;;;16.80;70.30;;;;;;4937566;29;20501;-79
2021/10/02 08:05:10;;;;;;;4.03;3.13;;;16.80;70.20;;;;;;4921839;29;20055;-78
2021/10/02 08:07:42;;;;;;;3.83;2.72;;;16.90;70.30;;;;;;4954512;29;20139;-79
2021/10/02 08:10:09;;;;;;;4.28;2.83;;;16.80;70.30;;;;;;4955474;28;20058;-82
2021/10/02 08:12:35;;;;;;;4.03;3.03;;;16.80;70.30;;;;;;4954652;29;20477;-79
2021/10/02 08:15:04;;;;;;;4.55;3.10;;;16.80;70.30;;;;;;4955173;29;20034;-79
2021/10/02 08:17:33;;;;;;;3.72;2.70;;;16.80;70.30;;;;;;4954677;28;20023;-80
2021/10/02 08:20:11;;;;;;;4.45;2.85;;;16.90;70.40;;;;;;4927114;29;20125;-79
2021/10/02 08:22:43;;;;;;;3.70;2.63;;;16.80;70.30;;;;;;4954428;29;20027;-79
2021/10/02 08:25:10;;;;;;;4.50;2.92;;;16.90;70.40;;;;;;4954577;28;20118;-79
2021/10/02 08:27:36;;;;;;;3.47;2.80;;;16.90;70.40;;;;;;4942504;29;20475;-79
2021/10/02 08:30:04;;;;;;;3.90;3.10;;;16.90;70.40;;;;;;4914898;29;20055;-79
2021/10/02 08:32:30;;;;;;;4.25;3.10;;;16.90;70.40;;;;;;4932205;29;20070;-79
2021/10/02 08:34:56;;;;;;;3.45;2.90;;;16.90;70.40;;;;;;4921977;29;20066;-79
2021/10/02 08:37:22;;;;;;;3.47;2.88;;;16.90;70.40;;;;;;4914415;29;20027;-78
2021/10/02 08:39:48;;;;;;;3.85;2.85;;;16.90;70.40;;;;;;4954641;29;20060;-79
2021/10/02 08:42:14;;;;;;;4.03;2.88;;;16.90;70.40;;;;;;4921651;29;20126;-79
2021/10/02 08:44:43;;;;;;;3.97;2.67;;;17.00;70.50;;;;;;4954104;29;20046;-78
2021/10/02 08:47:12;;;;;;;3.45;2.88;;;17.00;70.50;;;;;;4968922;28;20043;-79
2021/10/02 08:49:46;;;;;;;4.20;3.13;;;17.00;70.40;;;;;;4937029;29;20039;-79
2021/10/02 08:52:14;;;;;;;4.17;2.90;;;17.00;70.50;;;;;;4904457;29;20024;-78
2021/10/02 08:54:43;;;;;;;3.60;2.67;;;17.00;70.40;;;;;;4923241;29;20094;-80
2021/10/02 08:57:10;;;;;;;3.13;2.65;;;17.00;70.40;;;;;;4935344;29;20090;-80
2021/10/02 08:59:38;;;;;;;4.10;2.88;;;17.10;70.50;;;;;;4910431;29;20104;-80
2021/10/02 09:02:07;;;;;;;4.07;2.97;;;17.00;70.40;;;;;;4955318;28;20023;-79
2021/10/02 09:04:33;;;;;;;4.50;3.00;;;17.10;70.50;;;;;;4915242;29;20036;-80
2021/10/02 09:07:00;;;;;;;3.53;2.80;;;17.10;70.40;;;;;;4952883;29;20031;-79
2021/10/02 09:09:26;;;;;;;4.25;3.15;;;17.10;70.40;;;;;;4946738;29;20035;-80
2021/10/02 09:11:52;;;;;;;3.45;2.55;;;17.10;70.40;;;;;;4921548;29;20054;-79
2021/10/02 09:14:18;;;;;;;3.97;2.85;;;17.10;70.40;;;;;;4954369;29;20034;-80
2021/10/02 09:16:44;;;;;;;3.00;2.53;;;17.10;70.40;;;;;;4937454;29;20470;-79
2021/10/02 09:19:10;;;;;;;3.47;2.50;;;17.20;70.40;;;;;;4968856;28;20035;-80
2021/10/02 09:22:01;;;;;;;3.40;2.45;;;17.20;70.30;;;;;;4937651;29;20083;-78
2021/10/02 09:24:33;;;;;;;2.67;2.42;;;17.20;70.50;;;;;;4936571;29;20031;-81
2021/10/02 09:27:00;;;;;;;3.15;2.42;;;17.20;70.30;;;;;;4924995;29;20040;-78
2021/10/02 09:29:40;;;;;;;4.45;2.47;;;17.20;70.30;;;;;;4937865;29;20039;-79
2021/10/02 09:32:13;;;;;;;2.88;2.58;;;17.30;70.40;;;;;;4940792;29;20031;-79
2021/10/02 09:34:48;;;;;;;3.20;2.38;;;17.30;70.30;;;;;;4936310;29;20077;-79
2021/10/02 09:37:25;;;;;;;;;;;17.30;70.30;;;;;;4952170;28;20039;-85
2021/10/02 09:39:55;;;;;;;2.60;2.10;;;17.30;70.20;;;;;;4936773;29;19937;-83
2021/10/02 09:42:46;;;;;;;2.28;2.00;;;17.30;70.00;;;;;;4937419;29;20031;-85
2021/10/02 09:45:15;;;;;;;3.25;2.20;;;17.40;70.20;;;;;;4923379;29;20086;-83
2021/10/02 09:47:47;;;;;;;2.75;2.08;;;17.40;70.20;;;;;;4936785;29;20494;-94
2021/10/02 09:50:18;;;;;;;3.42;2.30;;;17.40;70.20;;;;;;4939462;28;20090;-82
2021/10/02 09:52:46;;;;;;;2.70;2.10;;;17.50;70.20;;;;;;4937689;29;20027;-87
2021/10/02 09:55:29;;;;;;;3.40;2.08;;;17.50;70.20;;;;;;4925531;29;20039;-85
2021/10/02 09:57:58;;;;;;;2.20;2.00;;;17.60;70.30;;;;;;4937768;29;20038;-83
2021/10/02 10:00:27;;;;;;;3.08;2.28;;;17.60;70.10;;;;;;4944398;29;20020;-84
2021/10/02 10:02:54;;;;;;;3.17;2.45;;;17.60;70.10;;;;;;4937957;29;20459;-85
2021/10/02 10:05:25;;;;;;;2.67;2.10;;;17.60;70.10;;;;;;4953208;28;20059;-85
2021/10/02 10:07:52;;;;;;;2.60;2.03;;;17.70;70.10;;;;;;4917647;29;20043;-84
2021/10/02 10:10:18;;;;;;;2.97;2.40;;;17.70;70.00;;;;;;4954496;29;20038;-85
2021/10/02 10:12:45;;;;;;;2.25;2.05;;;17.80;70.10;;;;;;4917973;29;20036;-85
2021/10/02 10:15:25;;;;;;;2.35;1.98;;;17.80;70.00;;;;;;4955623;28;20047;-86
2021/10/02 10:17:51;;;;;;;2.25;2.00;;;17.80;70.10;;;;;;4946957;29;20035;-83
2021/10/02 10:20:18;;;;;;;2.92;2.05;;;17.90;70.00;;;;;;4958322;29;20059;-85
2021/10/02 10:22:44;;;;;;;2.47;2.20;;;17.90;70.00;;;;;;4914123;29;20390;-84
2021/10/02 10:25:12;;;;;;;3.15;2.10;;;18.00;70.00;;;;;;4957981;29;20039;-85
2021/10/02 10:27:44;;;;;;;2.55;1.90;;;18.00;70.00;;;;;;4925372;29;20090;-85
2021/10/02 10:30:22;;;;;;;2.42;2.10;;;18.00;69.90;;;;;;4958522;29;20032;-85
2021/10/02 10:33:09;;;;;;;2.25;2.00;;;18.10;70.00;;;;;;4926780;29;20463;-84
2021/10/02 10:35:38;;;;;;;2.90;2.20;;;18.10;70.00;;;;;;4940669;29;20114;-84
2021/10/02 10:38:08;;;;;;;3.42;2.08;;;18.10;69.90;;;;;;4972787;28;20028;-84
2021/10/02 10:40:35;;;;;;;2.17;1.98;;;18.10;69.80;;;;;;4941854;29;20554;-84
2021/10/02 10:43:01;;;;;;;2.78;2.10;;;18.20;69.80;;;;;;4957122;29;20067;-84
2021/10/02 10:45:27;;;;;;;2.10;1.85;;;18.20;69.80;;;;;;4920621;29;20043;-81
2021/10/02 10:47:56;;;;;;;3.03;2.08;;;18.20;70.40;;;;;;4938179;29;20039;-78
2021/10/02 10:50:22;;;;;;;1.67;1.55;;;18.20;69.80;;;;;;4955207;29;20066;-79
2021/10/02 10:52:49;;;;;;;2.55;2.00;;;18.20;69.80;;;;;;4938439;29;20039;-81
2021/10/02 10:55:17;;;;;;;2.03;1.83;;;18.30;70.40;;;;;;4939089;29;20475;-81
2021/10/02 10:57:52;;;;;;;2.30;1.70;;;18.30;69.80;;;;;;4923355;29;20039;-81
2021/10/02 11:00:21;;;;;;;1.60;1.50;;;18.30;69.70;;;;;;4938804;29;20497;-82
2021/10/02 11:02:56;;;;;;;3.67;1.90;;;18.40;69.70;;;;;;4939143;29;20027;-81
2021/10/02 11:05:39;;;;;;;2.72;1.80;;;18.40;69.80;;;;;;4939673;29;20503;-82
2021/10/02 11:08:08;;;;;;;2.45;1.98;;;18.40;69.80;;;;;;4923522;29;20035;-82
2021/10/02 11:10:45;;;;;;;2.03;1.65;;;18.40;69.70;;;;;;4923442;29;20031;-82
2021/10/02 11:13:14;;;;;;;2.63;1.98;;;18.50;69.80;;;;;;4923851;29;20051;-83
2021/10/02 11:15:44;;;;;;;1.50;1.40;;;18.50;69.70;;;;;;4939058;29;20090;-83
2021/10/02 11:18:47;;;;;;;2.10;1.70;;;18.50;69.70;;;;;;4956259;29;20035;-82
2021/10/02 11:21:18;;;;;;;2.08;1.67;;;18.60;69.80;;;;;;4919779;29;20110;-83
2021/10/02 11:24:10;;;;;;;1.67;1.40;;;18.60;69.70;;;;;;4931777;29;20028;-83
2021/10/02 11:26:43;;;;;;;1.55;1.45;;;18.60;69.70;;;;;;4955222;28;20039;-82
2021/10/02 11:29:14;;;;;;;3.47;1.60;;;18.70;69.60;;;;;;4939206;29;20386;-83
2021/10/02 11:31:40;;;;;;;1.98;1.70;;;18.70;69.60;;;;;;4938677;29;20485;-82
2021/10/02 11:34:22;;;;;;;2.80;1.70;;;18.70;69.50;;;;;;4923121;29;20023;-83
2021/10/02 11:36:54;;;;;;;1.48;1.30;;;18.70;69.60;;;;;;4956131;29;20042;-82
2021/10/02 11:39:23;;;;;;;1.50;1.40;;;18.80;69.50;;;;;;4939063;29;20027;-82
2021/10/02 11:41:53;;;;;;;1.40;1.30;;;18.80;69.50;;;;;;4923001;29;20058;-83
2021/10/02 11:44:30;;;;;;;2.00;1.58;;;18.80;69.40;;;;;;4922644;29;20399;-82
2021/10/02 11:47:29;;;;;;;1.85;1.40;;;18.90;69.50;;;;;;4938836;29;20475;-82
2021/10/02 11:50:07;;;;;;;1.58;1.42;;;18.90;69.50;;;;;;4938985;29;20363;-82
2021/10/02 11:52:56;;;;;;;1.48;1.38;;;18.90;69.30;;;;;;4938694;29;20027;-82
2021/10/02 11:55:38;;;;;;;1.30;1.20;;;19.00;69.40;;;;;;4915545;29;20049;-82
2021/10/02 11:58:09;;;;;;;1.67;1.38;;;19.00;69.40;;;;;;4920508;29;20036;-82
2021/10/02 12:01:00;;;;;;;1.83;1.27;;;19.00;69.30;;;;;;4919416;29;20086;-83
2021/10/02 12:03:32;;;;;;;1.30;1.20;;;19.00;69.30;;;;;;4954523;29;20057;-83
2021/10/02 12:06:00;;;;;;;1.60;1.50;;;19.00;69.20;;;;;;4955098;29;20055;-82
2021/10/02 12:08:27;;;;;;;1.40;1.30;;;19.10;69.20;;;;;;4938416;29;20039;-83
2021/10/02 12:11:07;;;;;;;1.42;1.20;;;19.10;69.20;;;;;;4922443;29;20027;-82
2021/10/02 12:13:39;;;;;;;1.65;1.30;;;19.20;69.30;;;;;;4921982;29;20025;-82
2021/10/02 12:16:14;;;;;;;1.98;1.15;;;19.20;69.20;;;;;;4936950;29;20039;-82
2021/10/02 12:18:51;;;;;;;1.27;1.00;;;19.20;69.10;;;;;;4921421;28;20056;-81
2021/10/02 12:21:22;;;;;;;1.05;0.95;;;19.20;69.10;;;;;;4919824;29;20023;-83
2021/10/02 12:23:54;;;;;;;1.20;1.10;;;19.20;69.00;;;;;;4940706;29;20059;-79
2021/10/02 12:26:21;;;;;;;1.00;0.90;;;19.30;69.00;;;;;;4952212;29;20570;-82
2021/10/02 12:28:47;;;;;;;1.27;1.17;;;19.30;69.50;;;;;;4940775;29;20075;-79
2021/10/02 12:31:13;;;;;;;1.25;1.10;;;19.30;68.80;;;;;;4924557;29;20039;-79
2021/10/02 12:33:38;;;;;;;1.10;1.02;;;19.40;68.80;;;;;;4954326;28;20070;-81
2021/10/02 12:36:04;;;;;;;1.95;1.25;;;19.40;68.70;;;;;;4937611;29;20033;-79
2021/10/02 12:38:44;;;;;;;1.52;1.30;;;19.50;68.70;;;;;;4938232;28;20031;-79
2021/10/02 12:41:10;;;;;;;1.35;1.15;;;19.50;68.70;;;;;;4914128;29;20066;-80
2021/10/02 12:43:36;;;;;;;1.08;0.98;;;19.50;68.50;;;;;;4938231;29;20123;-80
2021/10/02 12:46:15;;;;;;;1.05;0.95;;;19.50;68.40;;;;;;4953999;29;20126;-80
2021/10/02 12:48:41;;;;;;;1.50;1.00;;;19.50;68.40;;;;;;4936854;29;20043;-80
2021/10/02 12:51:09;;;;;;;1.10;1.00;;;19.60;68.30;;;;;;4937059;29;20055;-79
2021/10/02 12:53:36;;;;;;;1.17;1.08;;;19.60;68.30;;;;;;4936896;28;20031;-81
2021/10/02 12:56:18;;;;;;;1.10;1.00;;;19.60;68.90;;;;;;4911049;28;20039;-86
2021/10/02 12:58:44;;;;;;;1.23;1.13;;;19.70;68.50;;;;;;4936411;29;20027;-80
2021/10/02 13:01:10;;;;;;;1.90;1.20;;;19.70;68.40;;;;;;4922470;29;20036;-79
2021/10/02 13:03:40;;;;;;;1.23;1.08;;;19.70;68.40;;;;;;4921028;29;20037;-80
2021/10/02 13:06:09;;;;;;;1.80;1.05;;;19.70;68.40;;;;;;4922432;29;20063;-82
2021/10/02 13:08:34;;;;;;;1.33;1.08;;;19.70;68.20;;;;;;4924580;29;20038;-84
2021/10/02 13:11:00;;;;;;;1.65;1.17;;;19.80;68.20;;;;;;4935842;29;20090;-81
2021/10/02 13:13:26;;;;;;;1.23;1.00;;;19.80;68.20;;;;;;4917605;29;20028;-82
2021/10/02 13:15:55;;;;;;;1.13;1.00;;;19.80;68.20;;;;;;4898766;29;20043;-82
2021/10/02 13:18:23;;;;;;;0.90;0.90;;;19.80;68.20;;;;;;4949883;29;20387;-82
2021/10/02 13:20:53;;;;;;;1.52;0.88;;;19.80;68.20;;;;;;4936324;29;20043;-81
2021/10/02 13:23:22;;;;;;;1.10;1.00;;;19.80;68.10;;;;;;4936609;29;20030;-82
2021/10/02 13:26:07;;;;;;;0.93;0.90;;;19.80;68.70;;;;;;4928025;29;20098;-81
2021/10/02 13:28:44;;;;;;;1.10;0.93;;;19.80;68.10;;;;;;4936514;29;20027;-81
2021/10/02 13:31:16;;;;;;;1.08;0.95;;;19.90;68.00;;;;;;4936487;29;20043;-81
2021/10/02 13:33:51;;;;;;;1.10;0.90;;;19.80;68.00;;;;;;4951909;29;20094;-80
2021/10/02 13:36:27;;;;;;;1.30;1.10;;;19.90;68.00;;;;;;4936061;29;20138;-82
2021/10/02 13:39:13;;;;;;;1.02;0.98;;;19.90;68.00;;;;;;4919312;29;20432;-82
2021/10/02 13:41:44;;;;;;;1.23;1.00;;;19.90;68.00;;;;;;4935386;29;20125;-81
2021/10/02 13:44:10;;;;;;;0.60;0.60;;;19.90;67.90;;;;;;4928908;29;20468;-81
2021/10/02 13:46:40;;;;;;;0.90;0.90;;;19.90;67.90;;;;;;4920044;29;20039;-81
2021/10/02 13:49:11;;;;;;;1.02;0.93;;;19.90;67.90;;;;;;4935579;28;20055;-81
2021/10/02 13:51:38;;;;;;;0.75;0.70;;;19.90;67.90;;;;;;4920741;29;20118;-79
2021/10/02 13:54:04;;;;;;;1.40;1.00;;;19.90;67.90;;;;;;4955603;28;20027;-78
2021/10/02 13:56:38;;;;;;;1.35;1.05;;;19.90;67.80;;;;;;4938979;29;20451;-77
2021/10/02 13:59:05;;;;;;;0.90;0.90;;;20.00;67.90;;;;;;4939128;29;20483;-78
2021/10/02 14:01:32;;;;;;;0.90;0.90;;;20.00;67.80;;;;;;4920981;29;20027;-78